Main page


Airports :

Lankaran, Azerbaijan

Lankaran International Airport

latitude: 38-44-47N, longitude: 048-49-04E, elevation: 9 m

Current weather observation

The report was made 1 hour and 1 minutes ago, at 09:00 UTC
Wind 7 kt from the East
Temperature 14°C
Humidity 63%
Pressure 1017 hPa
Visibility 10 km or more

METAR: UBBL 180900Z 10007KT 9999 NSC 14/07 Q1017 R33/CLRD// NOSIG RMK MT OP

Time: 14:01 (10:01 UTC)


The report was made 4 hours and 55 minutes ago, at 05:06 UTC
Forecast valid from 18 at 06 UTC to 19 at 06 UTC
Wind 6 kt from the South
Visibility: 9000 m
Broken clouds at a height of 10000 ft
from 18 at 06 UTC to 18 at 08 UTC
Wind 4 kt from variable directions
from 18 at 20 UTC to 18 at 22 UTC
Visibility: 3000 m
Scattered clouds at a height of 1200 ft

TAF: UBBL 180506Z 1806/1906 18006KT 9000 BKN100 TX11/1810Z TN05/1903Z TEMPO 1806/1808 VRB04KT BECMG 1820/1822 3000 BR SCT012

Weather observations and forecasts of more than 4000 airports (METAR and TAF reports).

The available stations are represented by yellow and red dots on the map.

Hover mouse over dot to see the name of the station.

Then click to see weather observations and forecasts.

To change the map : click on the green buttons with a black cross to zoom in, on the green button with a dash to zoom out, or on the green arrows for adjacent maps.